Time;durP1;ratioP1;P1;durP2;ratioP2;P2;SDS_P1;SDS_P2;PMS_P1;PMS_P2;Temp;Humidity;BMP_temperature;BMP_pressure;BME280_temperature;BME280_humidity;BME280_pressure;Samples;Min_cycle;Max_cycle;Signal;HPM_P1;HPM_P2
2021/11/28 00:02:21;;;;;;;8.68;6.05;;;3.40;99.90;;;;;;5013424;28;20480;-46
2021/11/28 00:04:48;;;;;;;10.57;6.10;;;3.40;99.90;;;;;;5013607;28;20022;-44
2021/11/28 00:14:55;;;;;;;9.70;5.68;;;3.50;99.90;;;;;;5013532;28;20036;-50
2021/11/28 00:17:21;;;;;;;7.85;5.38;;;3.60;99.90;;;;;;5013151;28;20036;-47
2021/11/28 00:19:47;;;;;;;7.75;5.70;;;3.50;99.90;;;;;;5012925;28;20029;-48
2021/11/28 00:22:13;;;;;;;9.05;5.95;;;3.60;99.90;;;;;;5012763;28;20061;-50
2021/11/28 00:24:39;;;;;;;10.23;5.55;;;3.60;99.90;;;;;;5012362;28;20119;-45
2021/11/28 00:27:05;;;;;;;6.80;5.47;;;3.60;99.90;;;;;;5031738;23;20095;-50
2021/11/28 00:29:32;;;;;;;12.02;6.05;;;3.50;99.90;;;;;;5032108;28;20033;-47
2021/11/28 00:31:59;;;;;;;9.57;5.15;;;3.50;99.90;;;;;;5032803;28;20033;-50
2021/11/28 00:34:25;;;;;;;16.73;10.45;;;3.50;99.90;;;;;;5032943;28;20105;-47
2021/11/28 00:36:51;;;;;;;20.60;13.95;;;3.40;99.90;;;;;;5033120;28;20108;-47
2021/11/28 00:39:16;;;;;;;43.42;24.50;;;3.40;99.90;;;;;;5032395;28;20053;-48
2021/11/28 00:41:42;;;;;;;9.85;6.07;;;3.40;99.90;;;;;;5032082;28;20492;-48
2021/11/28 00:44:08;;;;;;;9.45;5.18;;;3.40;99.90;;;;;;5032690;28;20541;-48
2021/11/28 00:46:33;;;;;;;10.65;5.57;;;3.40;99.90;;;;;;5031379;28;20018;-47
2021/11/28 00:49:03;;;;;;;8.55;5.22;;;3.30;99.90;;;;;;5031457;28;20024;-48
2021/11/28 00:53:58;;;;;;;8.30;5.55;;;3.20;99.90;;;;;;5032049;28;20387;-50
2021/11/28 00:56:24;;;;;;;8.77;5.15;;;3.20;99.90;;;;;;5031126;28;20036;-49
2021/11/28 00:58:49;;;;;;;10.95;5.72;;;3.30;99.90;;;;;;5032413;28;20029;-48
2021/11/28 01:01:16;;;;;;;8.20;4.72;;;3.30;99.90;;;;;;5031968;28;20390;-51
2021/11/28 01:03:42;;;;;;;7.93;5.45;;;3.20;99.90;;;;;;5032330;28;20052;-51
2021/11/28 01:06:08;;;;;;;12.73;5.53;;;3.30;99.90;;;;;;5032236;28;20036;-53
2021/11/28 01:08:33;;;;;;;6.75;4.85;;;3.30;99.90;;;;;;5032075;28;20026;-52
2021/11/28 01:10:59;;;;;;;8.57;6.10;;;3.40;99.90;;;;;;5031958;28;20494;-50
2021/11/28 01:13:25;;;;;;;11.70;5.55;;;3.50;99.90;;;;;;5030821;28;20069;-50
2021/11/28 01:15:50;;;;;;;8.60;5.55;;;3.50;99.90;;;;;;5032072;28;20033;-49
2021/11/28 01:18:16;;;;;;;6.72;5.15;;;3.50;99.90;;;;;;5030709;28;20029;-52
2021/11/28 01:20:41;;;;;;;7.57;5.22;;;3.50;99.90;;;;;;5031680;28;20026;-48
2021/11/28 01:23:07;;;;;;;9.35;5.13;;;3.60;99.90;;;;;;5031868;28;20101;-48
2021/11/28 01:25:32;;;;;;;8.27;5.03;;;3.60;99.90;;;;;;5032025;28;20036;-49
2021/11/28 01:27:58;;;;;;;8.07;5.07;;;3.50;99.90;;;;;;5031514;28;20040;-50
2021/11/28 01:30:24;;;;;;;7.28;5.32;;;3.50;99.90;;;;;;5031473;28;20045;-51
2021/11/28 01:32:49;;;;;;;9.07;4.82;;;3.50;99.90;;;;;;5031885;28;20097;-47
2021/11/28 01:35:17;;;;;;;9.30;5.55;;;3.60;99.90;;;;;;5031667;28;20187;-50
2021/11/28 01:37:44;;;;;;;5.82;4.75;;;3.60;99.90;;;;;;5031663;28;20053;-54
2021/11/28 01:40:20;;;;;;;8.57;5.15;;;3.50;99.90;;;;;;5030313;28;20018;-52
2021/11/28 01:42:47;;;;;;;10.52;5.85;;;3.50;99.90;;;;;;5031727;28;20029;-50
2021/11/28 01:45:21;;;;;;;9.63;5.90;;;3.40;99.90;;;;;;5030466;28;20021;-49
2021/11/28 01:47:47;;;;;;;6.18;4.82;;;3.40;99.90;;;;;;5031518;28;20013;-51
2021/11/28 01:50:12;;;;;;;9.55;5.65;;;3.30;99.90;;;;;;5029675;28;20117;-49
2021/11/28 01:52:38;;;;;;;6.68;4.75;;;3.30;99.90;;;;;;5031170;28;20041;-51
2021/11/28 01:55:07;;;;;;;9.18;5.25;;;3.30;99.90;;;;;;5031028;28;20364;-51
2021/11/28 01:57:34;;;;;;;5.55;5.05;;;3.30;99.90;;;;;;5031509;28;20022;-49
2021/11/28 02:00:00;;;;;;;11.45;5.53;;;3.20;99.90;;;;;;5031260;28;20026;-50
2021/11/28 02:02:26;;;;;;;7.90;4.85;;;3.40;99.90;;;;;;5031741;28;20029;-48
2021/11/28 02:04:52;;;;;;;7.78;4.90;;;3.40;99.90;;;;;;5030169;28;20368;-48
2021/11/28 02:07:18;;;;;;;8.65;5.30;;;3.40;99.90;;;;;;5031282;28;20025;-48
2021/11/28 02:09:44;;;;;;;8.35;5.28;;;3.50;99.90;;;;;;5031103;28;20052;-49
2021/11/28 02:12:10;;;;;;;9.68;5.45;;;3.40;99.90;;;;;;5031365;28;20028;-51
2021/11/28 02:14:36;;;;;;;8.77;5.68;;;3.50;99.90;;;;;;5031430;28;20048;-54
2021/11/28 02:17:02;;;;;;;7.63;5.78;;;3.50;99.90;;;;;;5031297;28;20480;-48
2021/11/28 02:19:27;;;;;;;7.78;5.75;;;3.50;99.90;;;;;;5031106;28;20407;-51
2021/11/28 02:21:53;;;;;;;12.40;6.30;;;3.40;99.90;;;;;;5031149;28;20021;-54
2021/11/28 02:24:19;;;;;;;8.07;5.03;;;3.40;99.90;;;;;;5031304;28;20044;-48
2021/11/28 02:26:44;;;;;;;10.82;5.97;;;3.40;99.90;;;;;;5031099;28;20033;-48
2021/11/28 02:29:10;;;;;;;8.82;5.85;;;3.40;99.90;;;;;;5031009;28;20116;-52
2021/11/28 02:31:35;;;;;;;8.75;5.60;;;3.50;99.90;;;;;;5031168;28;20045;-51
2021/11/28 02:34:01;;;;;;;8.15;4.90;;;3.50;99.90;;;;;;5031215;28;20390;-49
2021/11/28 02:36:26;;;;;;;8.68;5.15;;;3.50;99.90;;;;;;5031035;28;20025;-51
2021/11/28 02:38:52;;;;;;;13.38;5.57;;;3.50;99.90;;;;;;5031178;28;20464;-49
2021/11/28 02:41:17;;;;;;;9.35;5.13;;;3.50;99.90;;;;;;5030723;28;20072;-52
2021/11/28 02:43:43;;;;;;;9.68;4.82;;;3.50;99.90;;;;;;5029761;28;20105;-52
2021/11/28 02:46:09;;;;;;;10.60;5.68;;;3.50;99.90;;;;;;5031063;28;20475;-53
2021/11/28 02:48:37;;;;;;;10.88;4.85;;;3.50;99.90;;;;;;5033513;28;20018;-50
2021/11/28 02:51:03;;;;;;;7.78;4.80;;;3.50;99.90;;;;;;5032895;28;20026;-48
2021/11/28 02:53:29;;;;;;;6.45;4.55;;;3.50;99.90;;;;;;5034751;28;20383;-49
2021/11/28 02:56:00;;;;;;;10.60;4.45;;;3.60;99.90;;;;;;5034228;28;20044;-51
2021/11/28 02:58:27;;;;;;;10.63;5.47;;;3.50;99.90;;;;;;5033264;28;20067;-47
2021/11/28 03:01:00;;;;;;;7.65;4.78;;;3.50;99.90;;;;;;5033952;28;20124;-49
2021/11/28 03:03:27;;;;;;;8.77;5.53;;;3.50;99.90;;;;;;5034532;28;20061;-49
2021/11/28 03:05:53;;;;;;;7.78;5.22;;;3.50;99.90;;;;;;5034913;28;20032;-51
2021/11/28 03:08:19;;;;;;;6.97;4.43;;;3.60;99.90;;;;;;5034322;28;20040;-49
2021/11/28 03:10:48;;;;;;;7.45;5.22;;;3.50;99.90;;;;;;5033965;28;20053;-51
2021/11/28 03:13:20;;;;;;;4.95;4.13;;;3.50;99.90;;;;;;5034307;28;20025;-53
2021/11/28 03:15:49;;;;;;;8.85;5.88;;;3.50;99.90;;;;;;5032770;28;20033;-52
2021/11/28 03:18:21;;;;;;;6.10;5.05;;;3.60;99.90;;;;;;5034050;28;20022;-53
2021/11/28 03:20:47;;;;;;;7.68;5.00;;;3.50;99.90;;;;;;5032510;28;20399;-49
2021/11/28 03:23:15;;;;;;;5.15;4.65;;;3.50;99.90;;;;;;5032796;28;20052;-50
2021/11/28 03:25:41;;;;;;;6.47;5.70;;;3.60;99.90;;;;;;5032639;28;20029;-50
2021/11/28 03:28:13;;;;;;;8.55;5.15;;;3.60;99.90;;;;;;5033657;28;20099;-51
2021/11/28 03:30:38;;;;;;;8.25;5.47;;;3.70;99.90;;;;;;5033652;28;20025;-52
2021/11/28 03:33:04;;;;;;;9.90;5.50;;;3.60;99.90;;;;;;5032517;28;20383;-51
2021/11/28 03:35:29;;;;;;;8.55;5.65;;;3.60;99.90;;;;;;5033750;28;20040;-53
2021/11/28 03:37:55;;;;;;;11.77;5.35;;;3.60;99.90;;;;;;5034126;28;20068;-48
2021/11/28 03:40:21;;;;;;;6.05;4.47;;;3.60;99.90;;;;;;5033289;28;20029;-51
2021/11/28 03:42:46;;;;;;;7.72;4.95;;;3.50;99.90;;;;;;5033570;28;20021;-48
2021/11/28 03:45:15;;;;;;;7.30;4.90;;;3.50;99.90;;;;;;5033617;28;20432;-54
2021/11/28 03:47:40;;;;;;;8.32;5.22;;;3.50;99.90;;;;;;5033785;28;20026;-49
2021/11/28 03:50:07;;;;;;;8.13;5.30;;;3.50;99.90;;;;;;5033114;28;20071;-49
2021/11/28 03:52:33;;;;;;;9.10;6.35;;;3.40;99.90;;;;;;5033407;28;20077;-49
2021/11/28 03:54:58;;;;;;;8.65;5.45;;;3.40;99.90;;;;;;5032842;28;20038;-49
2021/11/28 03:57:24;;;;;;;7.38;5.13;;;3.30;99.90;;;;;;5033347;28;20119;-50
2021/11/28 03:59:50;;;;;;;8.38;5.85;;;3.30;99.90;;;;;;5032234;28;20087;-47
2021/11/28 04:02:16;;;;;;;14.13;6.15;;;3.30;99.90;;;;;;5033083;28;20033;-50
2021/11/28 04:04:42;;;;;;;7.65;5.50;;;3.30;99.90;;;;;;5033188;28;20025;-51
2021/11/28 04:07:08;;;;;;;8.55;5.50;;;3.30;99.90;;;;;;5033044;28;20475;-50
2021/11/28 04:09:34;;;;;;;8.80;5.57;;;3.30;99.90;;;;;;5031498;28;20018;-50
2021/11/28 04:11:59;;;;;;;9.10;6.38;;;3.30;99.90;;;;;;5032968;28;20032;-52
2021/11/28 04:14:25;;;;;;;9.15;6.30;;;3.30;99.90;;;;;;5033094;28;20061;-47
2021/11/28 04:16:50;;;;;;;11.02;6.53;;;3.30;99.90;;;;;;5033060;28;20076;-50
2021/11/28 04:19:16;;;;;;;16.17;5.63;;;3.30;99.90;;;;;;5032778;28;20026;-53
2021/11/28 04:21:44;;;;;;;7.22;6.47;;;3.30;99.90;;;;;;5033125;28;20433;-51
2021/11/28 04:24:11;;;;;;;10.60;6.25;;;3.30;99.90;;;;;;5033396;28;20024;-51
2021/11/28 04:26:37;;;;;;;9.55;5.95;;;3.30;99.90;;;;;;5032768;28;20050;-52
2021/11/28 04:29:03;;;;;;;13.70;6.60;;;3.30;99.90;;;;;;5032476;28;20075;-54
2021/11/28 04:31:29;;;;;;;11.82;6.15;;;3.30;99.90;;;;;;5032691;28;20487;-51
2021/11/28 04:33:54;;;;;;;7.25;6.05;;;3.30;99.90;;;;;;5032575;28;20040;-51
2021/11/28 04:36:20;;;;;;;7.65;5.63;;;3.30;99.90;;;;;;5032624;28;20398;-51
2021/11/28 04:38:46;;;;;;;8.50;6.18;;;3.30;99.90;;;;;;5032483;28;20036;-48
2021/11/28 04:41:11;;;;;;;9.70;5.80;;;3.30;99.90;;;;;;5032629;28;20021;-49
2021/11/28 04:43:37;;;;;;;12.23;6.80;;;3.40;99.90;;;;;;5032529;28;20509;-53
2021/11/28 04:46:02;;;;;;;8.00;5.57;;;3.50;99.90;;;;;;5032423;28;20036;-51
2021/11/28 04:48:28;;;;;;;11.60;8.02;;;3.40;99.90;;;;;;5032495;28;20022;-51
2021/11/28 04:50:53;;;;;;;11.07;6.15;;;3.40;99.90;;;;;;5030777;28;20017;-50
2021/11/28 04:53:19;;;;;;;18.85;8.13;;;3.50;99.90;;;;;;5032524;28;20029;-52
2021/11/28 04:55:44;;;;;;;8.48;6.45;;;3.50;99.90;;;;;;5030847;28;20057;-49
2021/11/28 04:58:10;;;;;;;9.65;6.72;;;3.50;99.90;;;;;;5030904;28;20029;-53
2021/11/28 05:00:36;;;;;;;7.80;6.60;;;3.60;99.90;;;;;;5031815;28;20029;-54
2021/11/28 05:03:01;;;;;;;10.35;6.55;;;3.60;99.90;;;;;;5032017;28;20045;-52
2021/11/28 05:05:27;;;;;;;10.43;5.65;;;3.80;99.90;;;;;;5032176;28;20033;-50
2021/11/28 05:07:54;;;;;;;9.85;6.55;;;3.70;99.90;;;;;;5030898;28;20025;-49
2021/11/28 05:10:20;;;;;;;10.13;6.68;;;3.70;99.90;;;;;;5031556;28;20268;-52
2021/11/28 05:12:45;;;;;;;8.65;6.60;;;3.60;99.90;;;;;;5032004;28;20021;-50
2021/11/28 05:15:11;;;;;;;10.77;6.78;;;3.50;99.90;;;;;;5031935;28;20036;-52
2021/11/28 05:17:37;;;;;;;8.68;6.40;;;3.50;99.90;;;;;;5031802;28;20022;-48
2021/11/28 05:20:04;;;;;;;9.77;6.30;;;3.40;99.90;;;;;;5031616;28;20485;-51
2021/11/28 05:22:30;;;;;;;10.45;6.60;;;3.40;99.90;;;;;;5031807;28;20021;-49
2021/11/28 05:24:56;;;;;;;9.23;7.00;;;3.40;99.90;;;;;;5031789;28;20033;-50
2021/11/28 05:27:21;;;;;;;10.32;6.97;;;3.40;99.90;;;;;;5030341;28;20037;-52
2021/11/28 05:29:47;;;;;;;9.18;6.82;;;3.30;99.90;;;;;;5031533;28;20026;-49
2021/11/28 05:32:13;;;;;;;10.02;7.32;;;3.40;99.90;;;;;;5031560;28;20029;-47
2021/11/28 05:34:39;;;;;;;8.68;6.10;;;3.30;99.90;;;;;;5031754;28;20099;-48
2021/11/28 05:37:05;;;;;;;10.15;6.82;;;3.40;99.90;;;;;;5031503;28;20487;-49
2021/11/28 05:39:30;;;;;;;12.38;6.32;;;3.40;99.90;;;;;;5031402;28;20029;-48
2021/11/28 05:41:57;;;;;;;9.65;6.85;;;3.40;99.90;;;;;;5031461;28;20343;-53
2021/11/28 05:44:23;;;;;;;8.50;7.60;;;3.40;99.90;;;;;;5031564;28;20018;-47
2021/11/28 05:46:49;;;;;;;13.13;6.50;;;3.30;99.90;;;;;;5031439;28;20104;-49
2021/11/28 05:49:14;;;;;;;12.38;6.40;;;3.30;99.90;;;;;;5031231;28;20018;-52
2021/11/28 05:51:40;;;;;;;11.32;6.95;;;3.40;99.90;;;;;;5031432;28;20027;-51
2021/11/28 05:54:05;;;;;;;12.65;7.38;;;3.30;99.90;;;;;;5031727;28;20068;-50
2021/11/28 05:56:31;;;;;;;10.70;6.97;;;3.30;99.90;;;;;;5031402;28;20399;-48
2021/11/28 05:58:57;;;;;;;11.23;7.35;;;3.40;99.90;;;;;;5031716;28;20448;-50
2021/11/28 06:01:23;;;;;;;11.95;7.25;;;3.40;99.90;;;;;;5031214;28;20100;-51
2021/11/28 06:03:49;;;;;;;11.38;7.28;;;3.40;99.90;;;;;;5031983;28;20026;-49
2021/11/28 06:06:14;;;;;;;12.65;7.45;;;3.50;99.90;;;;;;5031343;28;20028;-47
2021/11/28 06:08:41;;;;;;;9.35;6.93;;;3.40;99.90;;;;;;5031215;28;20028;-48
2021/11/28 06:11:07;;;;;;;12.18;7.38;;;3.40;99.90;;;;;;5030965;28;20364;-47
2021/11/28 06:13:33;;;;;;;8.23;7.00;;;3.40;99.90;;;;;;5031445;28;20036;-47
2021/11/28 06:15:58;;;;;;;13.63;7.35;;;3.30;99.90;;;;;;5031401;28;20086;-48
2021/11/28 06:18:24;;;;;;;10.00;7.47;;;3.40;99.90;;;;;;5029876;28;20032;-49
2021/11/28 06:20:49;;;;;;;14.02;7.63;;;3.40;99.90;;;;;;5029724;28;20160;-47
2021/11/28 06:23:15;;;;;;;9.40;7.03;;;3.40;99.90;;;;;;5033483;28;20471;-50
2021/11/28 06:25:41;;;;;;;10.93;7.30;;;3.40;99.90;;;;;;5035035;28;20061;-49
2021/11/28 06:28:06;;;;;;;12.52;8.15;;;3.40;99.90;;;;;;5035953;28;20514;-51
2021/11/28 06:30:33;;;;;;;11.13;7.57;;;3.40;99.90;;;;;;5034587;28;20076;-48
2021/11/28 06:32:59;;;;;;;12.82;7.85;;;3.40;99.90;;;;;;5034987;28;20025;-47
2021/11/28 06:35:25;;;;;;;11.80;7.20;;;3.30;99.90;;;;;;5034932;28;20368;-48
2021/11/28 06:37:51;;;;;;;12.15;8.00;;;3.30;99.90;;;;;;5034865;28;20264;-49
2021/11/28 06:40:17;;;;;;;10.23;7.75;;;3.30;99.90;;;;;;5033165;28;20469;-49
2021/11/28 06:42:42;;;;;;;14.90;8.63;;;3.20;99.90;;;;;;5034555;28;20049;-49
2021/11/28 06:45:08;;;;;;;8.77;7.25;;;3.20;99.90;;;;;;5034482;28;20080;-48
2021/11/28 06:47:34;;;;;;;12.40;7.80;;;3.20;99.90;;;;;;5034406;28;20022;-48
2021/11/28 06:49:59;;;;;;;13.50;8.38;;;3.20;99.90;;;;;;5034505;28;20026;-48
2021/11/28 06:52:25;;;;;;;10.07;8.27;;;3.20;99.90;;;;;;5034492;28;20036;-49
2021/11/28 06:54:51;;;;;;;11.45;8.48;;;3.30;99.90;;;;;;5034330;28;20032;-47
2021/11/28 06:57:16;;;;;;;9.77;8.25;;;3.20;99.90;;;;;;5034389;28;20518;-47
2021/11/28 06:59:42;;;;;;;13.30;8.25;;;3.20;99.90;;;;;;5034066;28;20064;-49
2021/11/28 07:02:08;;;;;;;12.38;9.35;;;3.20;99.90;;;;;;5034314;28;20029;-48
2021/11/28 07:04:34;;;;;;;11.63;7.97;;;3.20;99.90;;;;;;5034226;28;20021;-47
2021/11/28 07:06:59;;;;;;;14.35;8.40;;;3.20;99.90;;;;;;5034076;28;20022;-49
2021/11/28 07:09:27;;;;;;;11.50;8.80;;;3.20;99.90;;;;;;5033865;28;20124;-49
2021/11/28 07:11:52;;;;;;;14.77;8.93;;;3.30;99.90;;;;;;5034129;28;20029;-49
2021/11/28 07:14:18;;;;;;;11.27;8.27;;;3.30;99.90;;;;;;5034032;28;20367;-51
2021/11/28 07:16:43;;;;;;;13.90;8.75;;;3.30;99.90;;;;;;5034352;28;20026;-48
2021/11/28 07:19:09;;;;;;;11.10;8.43;;;3.40;99.90;;;;;;5033586;28;20025;-49
2021/11/28 07:21:35;;;;;;;12.80;8.25;;;3.30;99.90;;;;;;5034072;28;20030;-47
2021/11/28 07:24:01;;;;;;;14.27;8.38;;;3.30;99.90;;;;;;5033750;28;20022;-49
2021/11/28 07:26:27;;;;;;;13.88;8.85;;;3.30;99.90;;;;;;5033771;28;20021;-47
2021/11/28 07:28:54;;;;;;;10.05;8.05;;;3.30;99.90;;;;;;5033511;28;20410;-50
2021/11/28 07:31:20;;;;;;;14.35;9.02;;;3.30;99.90;;;;;;5033432;28;20029;-47
2021/11/28 07:33:45;;;;;;;10.70;8.80;;;3.40;99.90;;;;;;5033644;28;20026;-49
2021/11/28 07:36:11;;;;;;;12.02;8.82;;;3.30;99.90;;;;;;5033573;28;20399;-47
2021/11/28 07:38:38;;;;;;;13.15;9.15;;;3.40;99.90;;;;;;5033536;28;20040;-47
2021/11/28 07:41:04;;;;;;;9.75;8.45;;;3.40;99.90;;;;;;5033013;28;20029;-50
2021/11/28 07:43:30;;;;;;;13.50;9.18;;;3.50;99.90;;;;;;5033293;28;20025;-47
2021/11/28 07:45:55;;;;;;;14.02;9.32;;;3.70;99.90;;;;;;5033286;28;20106;-49
2021/11/28 07:48:21;;;;;;;14.70;10.20;;;3.90;99.90;;;;;;5033468;28;20372;-47
2021/11/28 07:50:48;;;;;;;11.50;8.43;;;3.80;99.90;;;;;;5033111;28;20059;-49
2021/11/28 07:53:14;;;;;;;11.63;8.20;;;3.80;99.90;;;;;;5033339;28;20577;-50
2021/11/28 07:55:40;;;;;;;12.40;9.75;;;3.70;99.90;;;;;;5033373;28;20026;-47
2021/11/28 07:58:06;;;;;;;14.35;8.80;;;3.70;99.90;;;;;;5033029;28;20026;-49
2021/11/28 08:00:32;;;;;;;16.20;9.45;;;3.70;99.90;;;;;;5032825;28;20021;-47
2021/11/28 08:02:58;;;;;;;12.23;8.90;;;3.80;99.90;;;;;;5033279;28;20049;-52
2021/11/28 08:05:24;;;;;;;11.13;8.75;;;3.80;99.90;;;;;;5033418;28;20447;-50
2021/11/28 08:07:50;;;;;;;14.57;10.07;;;3.90;99.90;;;;;;5033088;28;20045;-48
2021/11/28 08:10:15;;;;;;;15.38;9.80;;;3.90;99.90;;;;;;5032838;28;20063;-50
2021/11/28 08:12:41;;;;;;;11.10;9.10;;;3.90;99.90;;;;;;5031714;28;20029;-51
2021/11/28 08:15:10;;;;;;;14.50;9.27;;;3.90;99.90;;;;;;5033001;28;20561;-51
2021/11/28 08:17:38;;;;;;;17.25;9.70;;;3.90;99.90;;;;;;5031628;28;20026;-46
2021/11/28 08:20:06;;;;;;;13.38;8.85;;;3.90;99.90;;;;;;5032557;28;20017;-47
2021/11/28 08:22:32;;;;;;;10.30;8.30;;;3.90;99.90;;;;;;5032772;28;20026;-47
2021/11/28 08:24:57;;;;;;;13.40;10.40;;;3.90;99.90;;;;;;5032725;28;20030;-51
2021/11/28 08:27:24;;;;;;;15.55;9.43;;;3.90;99.90;;;;;;5032442;28;20068;-47
2021/11/28 08:29:50;;;;;;;10.10;8.18;;;3.90;99.90;;;;;;5032541;28;20024;-50
2021/11/28 08:32:16;;;;;;;12.80;8.45;;;3.90;99.90;;;;;;5032620;28;20033;-48
2021/11/28 08:34:43;;;;;;;14.50;9.77;;;3.90;99.90;;;;;;5032533;28;20025;-50
2021/11/28 08:37:09;;;;;;;11.70;8.45;;;3.90;99.90;;;;;;5032606;28;20092;-48
2021/11/28 08:39:34;;;;;;;11.60;9.02;;;3.90;99.90;;;;;;5032198;28;20021;-50
2021/11/28 08:42:03;;;;;;;12.55;9.70;;;4.10;99.90;;;;;;5032836;28;20022;-48
2021/11/28 08:44:29;;;;;;;13.65;8.93;;;4.20;99.90;;;;;;5032170;28;20462;-52
2021/11/28 08:46:54;;;;;;;19.90;9.25;;;4.20;99.90;;;;;;5030869;28;20021;-52
2021/11/28 08:49:20;;;;;;;17.33;9.23;;;4.20;99.90;;;;;;5032010;28;20030;-52
2021/11/28 08:51:46;;;;;;;11.27;8.48;;;4.30;99.90;;;;;;5032297;28;20418;-51
2021/11/28 08:54:13;;;;;;;15.25;9.00;;;4.20;99.90;;;;;;5032194;28;20030;-47
2021/11/28 08:56:43;;;;;;;15.40;8.80;;;4.20;99.90;;;;;;5032141;28;20052;-50
2021/11/28 08:59:10;;;;;;;13.43;9.13;;;4.30;99.90;;;;;;5032512;28;20022;-47
2021/11/28 09:01:37;;;;;;;13.70;9.73;;;4.30;99.90;;;;;;5032813;28;20041;-47
2021/11/28 09:04:06;;;;;;;13.38;10.02;;;4.30;99.90;;;;;;5033035;28;20398;-49
2021/11/28 09:06:32;;;;;;;14.20;10.20;;;4.40;99.90;;;;;;5030704;28;20029;-51
2021/11/28 09:08:57;;;;;;;11.23;8.85;;;4.40;99.90;;;;;;5030727;28;20028;-52
2021/11/28 09:11:23;;;;;;;15.02;8.98;;;4.40;99.90;;;;;;5030510;28;20047;-47
2021/11/28 09:13:48;;;;;;;12.40;9.00;;;4.40;99.90;;;;;;5031984;28;20075;-49
2021/11/28 09:16:14;;;;;;;12.85;9.77;;;4.40;99.90;;;;;;5032033;28;20034;-53
2021/11/28 09:18:54;;;;;;;13.20;9.00;;;4.40;99.90;;;;;;5031619;28;20021;-52
2021/11/28 09:21:19;;;;;;;14.82;10.77;;;4.40;99.90;;;;;;5031325;28;20084;-48
2021/11/28 09:26:30;;;;;;;12.43;9.35;;;4.50;99.90;;;;;;5032135;28;20143;-51
2021/11/28 09:28:58;;;;;;;10.18;8.95;;;4.50;99.90;;;;;;5031606;28;20034;-52
2021/11/28 09:31:24;;;;;;;13.00;9.65;;;4.50;99.90;;;;;;5031308;28;20457;-52
2021/11/28 09:33:49;;;;;;;13.80;9.13;;;4.60;99.90;;;;;;5031610;28;20021;-49
2021/11/28 09:36:15;;;;;;;10.77;8.90;;;4.60;99.90;;;;;;5030299;28;20033;-53
2021/11/28 09:38:40;;;;;;;8.15;7.30;;;4.80;99.90;;;;;;5031444;28;20407;-51
2021/11/28 09:41:08;;;;;;;7.18;6.45;;;4.80;99.90;;;;;;5031234;28;20099;-51
2021/11/28 09:43:38;;;;;;;11.18;6.93;;;4.80;99.90;;;;;;5031650;28;20084;-50
2021/11/28 09:46:05;;;;;;;8.82;6.82;;;4.80;99.90;;;;;;5031458;28;20505;-49
2021/11/28 09:48:34;;;;;;;9.25;6.70;;;4.70;99.90;;;;;;5031547;28;20026;-52
2021/11/28 09:51:02;;;;;;;10.82;7.07;;;4.60;99.90;;;;;;5031813;28;20026;-50
2021/11/28 09:53:31;;;;;;;8.63;7.40;;;4.60;99.90;;;;;;5031646;28;20034;-47
2021/11/28 09:55:56;;;;;;;12.38;7.03;;;4.60;99.90;;;;;;5031119;28;20021;-50
2021/11/28 09:58:22;;;;;;;10.73;6.90;;;4.70;99.90;;;;;;5030714;28;20033;-48
2021/11/28 10:00:47;;;;;;;8.85;6.22;;;4.70;99.90;;;;;;5033921;28;20444;-53
2021/11/28 10:03:13;;;;;;;9.15;6.57;;;4.70;99.90;;;;;;5035418;28;20025;-49
2021/11/28 10:05:39;;;;;;;10.00;6.80;;;4.70;99.90;;;;;;5030054;28;20034;-49
2021/11/28 10:08:05;;;;;;;11.35;7.30;;;4.70;99.90;;;;;;5017877;28;20022;-46
2021/11/28 10:10:30;;;;;;;11.10;6.35;;;4.60;99.90;;;;;;5016102;28;20095;-48
2021/11/28 10:12:56;;;;;;;8.90;6.70;;;4.60;99.90;;;;;;5018136;28;20120;-54
2021/11/28 10:15:25;;;;;;;10.13;6.38;;;4.60;99.90;;;;;;5014141;28;20467;-50
2021/11/28 10:17:50;;;;;;;9.73;5.97;;;4.60;99.90;;;;;;5015469;28;20392;-47
2021/11/28 10:20:20;;;;;;;28.15;16.98;;;4.50;99.90;;;;;;5015125;28;20056;-59
2021/11/28 10:22:46;;;;;;;9.18;6.95;;;4.50;99.90;;;;;;5015202;28;20101;-58
2021/11/28 10:25:21;;;;;;;10.43;7.15;;;4.50;99.90;;;;;;5015511;28;20067;-59
2021/11/28 10:27:55;;;;;;;12.02;6.65;;;4.40;99.90;;;;;;5015286;28;20038;-57
2021/11/28 10:30:27;;;;;;;8.57;6.10;;;4.40;99.90;;;;;;5013717;28;20116;-58
2021/11/28 10:32:53;;;;;;;8.57;5.90;;;4.40;99.90;;;;;;5015274;28;20029;-58
2021/11/28 10:35:20;;;;;;;9.48;6.30;;;4.50;99.90;;;;;;5015279;28;20037;-58
2021/11/28 10:37:52;;;;;;;7.38;6.18;;;4.60;99.90;;;;;;5015413;28;20070;-60
2021/11/28 10:40:23;;;;;;;8.75;5.47;;;4.60;99.90;;;;;;5014700;28;20595;-58
2021/11/28 10:42:51;;;;;;;9.38;5.60;;;4.70;99.90;;;;;;5015029;28;20030;-58
2021/11/28 10:45:19;;;;;;;7.05;6.07;;;4.70;99.90;;;;;;5013699;28;20487;-59
2021/11/28 10:47:55;;;;;;;8.60;6.00;;;4.70;99.90;;;;;;5014850;28;20033;-58
2021/11/28 10:50:33;;;;;;;10.40;6.57;;;4.70;99.90;;;;;;5012833;28;20107;-59
2021/11/28 10:53:05;;;;;;;10.73;6.53;;;4.90;99.90;;;;;;5014542;28;20411;-59
2021/11/28 10:55:42;;;;;;;11.95;6.72;;;4.90;99.90;;;;;;5013503;28;20034;-59
2021/11/28 10:58:14;;;;;;;11.80;6.32;;;4.90;99.90;;;;;;5013033;28;20058;-58
2021/11/28 11:00:59;;;;;;;9.73;5.68;;;4.90;99.90;;;;;;5012914;28;20459;-59
2021/11/28 11:03:29;;;;;;;6.97;5.40;;;4.90;99.90;;;;;;4997104;28;20018;-59
2021/11/28 11:06:11;;;;;;;7.97;5.65;;;4.90;99.90;;;;;;5014641;28;20424;-59
2021/11/28 11:08:37;;;;;;;8.20;5.32;;;4.90;99.90;;;;;;5013971;28;20040;-59
2021/11/28 11:11:09;;;;;;;7.00;5.47;;;4.90;99.90;;;;;;5014265;28;20025;-59
2021/11/28 11:13:59;;;;;;;11.07;7.45;;;4.80;99.90;;;;;;5014882;28;20022;-59
2021/11/28 11:16:40;;;;;;;6.70;5.28;;;4.70;99.90;;;;;;5014533;28;20357;-59
2021/11/28 11:19:29;;;;;;;7.60;5.78;;;4.70;99.90;;;;;;5014354;28;20531;-59
2021/11/28 11:22:05;;;;;;;7.95;5.38;;;4.60;99.90;;;;;;5014388;28;20026;-53
2021/11/28 11:24:33;;;;;;;11.73;5.60;;;4.80;99.90;;;;;;5014651;28;20018;-59
2021/11/28 11:27:09;;;;;;;10.25;5.65;;;4.80;99.90;;;;;;5014138;28;20021;-58
2021/11/28 11:29:35;;;;;;;5.82;4.78;;;4.80;99.90;;;;;;5014083;28;20034;-57
2021/11/28 11:32:02;;;;;;;10.27;4.70;;;4.90;99.90;;;;;;5014117;28;20022;-59
2021/11/28 11:34:32;;;;;;;7.70;5.32;;;4.90;99.90;;;;;;5018103;28;20044;-58
2021/11/28 11:36:57;;;;;;;5.97;5.45;;;4.80;99.90;;;;;;5023679;28;20036;-51
2021/11/28 11:39:25;;;;;;;8.38;5.50;;;4.90;99.90;;;;;;5030692;28;20030;-51
2021/11/28 11:41:50;;;;;;;9.55;5.78;;;4.90;99.90;;;;;;5025071;28;20491;-54
2021/11/28 11:44:17;;;;;;;7.60;5.15;;;4.90;99.90;;;;;;5028542;28;20032;-52
2021/11/28 11:46:46;;;;;;;8.25;5.60;;;4.80;99.90;;;;;;5021878;28;20037;-50
2021/11/28 11:49:13;;;;;;;6.07;4.65;;;4.80;99.90;;;;;;5012866;28;20025;-63
2021/11/28 11:51:41;;;;;;;5.45;4.95;;;4.80;99.90;;;;;;5021307;28;20041;-51
2021/11/28 11:54:27;;;;;;;5.97;5.28;;;4.80;99.90;;;;;;5032484;28;20083;-49
2021/11/28 11:57:00;;;;;;;7.10;5.22;;;4.90;99.90;;;;;;5014957;28;20389;-53
2021/11/28 12:00:08;;;;;;;9.52;5.53;;;5.00;99.90;;;;;;5016424;28;20057;-54
2021/11/28 12:02:45;;;;;;;6.32;4.88;;;5.10;99.90;;;;;;5016078;28;20060;-52
2021/11/28 12:05:26;;;;;;;9.63;5.85;;;5.20;99.90;;;;;;5021454;28;20021;-50
2021/11/28 12:07:57;;;;;;;7.30;5.57;;;5.20;99.90;;;;;;5012546;28;20089;-58
2021/11/28 12:10:48;;;;;;;9.02;4.60;;;5.30;99.90;;;;;;5018846;28;20105;-52
2021/11/28 12:13:40;;;;;;;7.22;4.28;;;5.30;99.90;;;;;;5019488;28;20034;-50
2021/11/28 12:16:05;;;;;;;6.65;5.00;;;5.30;99.90;;;;;;5012993;28;20022;-51
2021/11/28 12:18:34;;;;;;;9.35;4.90;;;5.40;99.90;;;;;;5012154;28;20531;-55
2021/11/28 12:21:09;;;;;;;10.25;5.18;;;5.40;99.90;;;;;;5010315;28;20430;-51
2021/11/28 12:24:32;;;;;;;5.88;5.32;;;5.40;99.90;;;;;;5022052;28;20079;-47
2021/11/28 12:26:53;;;;;;;9.82;5.85;;;5.30;99.90;;;;;;5012572;28;20148;-54
2021/11/28 12:29:18;;;;;;;10.05;4.60;;;5.40;99.90;;;;;;5024052;28;20383;-51
2021/11/28 12:31:46;;;;;;;10.80;5.70;;;5.40;99.90;;;;;;5014189;28;20022;-50
2021/11/28 12:34:14;;;;;;;8.57;4.70;;;5.40;99.90;;;;;;5026167;28;20025;-54
2021/11/28 12:36:59;;;;;;;8.85;4.93;;;5.40;99.90;;;;;;5014802;28;20026;-49
2021/11/28 12:39:25;;;;;;;6.18;4.78;;;5.40;99.90;;;;;;5026201;28;20026;-54
2021/11/28 12:42:13;;;;;;;8.02;4.55;;;5.50;99.90;;;;;;5025305;28;20430;-60
2021/11/28 12:44:57;;;;;;;6.35;4.30;;;5.60;99.90;;;;;;5029424;28;20088;-54
2021/11/28 12:47:25;;;;;;;7.43;5.00;;;5.70;99.90;;;;;;5017280;28;20121;-58
2021/11/28 12:49:53;;;;;;;4.72;4.10;;;5.80;99.90;;;;;;5021003;28;20021;-60
2021/11/28 12:52:25;;;;;;;6.75;4.53;;;5.90;99.90;;;;;;5028595;28;20539;-61
2021/11/28 12:55:05;;;;;;;7.80;4.60;;;5.90;99.90;;;;;;5011717;28;20084;-55
2021/11/28 12:57:33;;;;;;;5.00;4.47;;;5.80;99.90;;;;;;5012541;28;20029;-62
2021/11/28 13:00:29;;;;;;;6.28;4.53;;;5.80;99.90;;;;;;5012401;28;20041;-54
2021/11/28 13:03:10;;;;;;;4.32;3.80;;;5.80;99.90;;;;;;4996180;28;20037;-58
2021/11/28 13:05:46;;;;;;;5.47;3.90;;;5.80;99.90;;;;;;5011575;28;20108;-61
2021/11/28 13:08:11;;;;;;;4.03;3.63;;;5.80;99.90;;;;;;5011297;28;20113;-50
2021/11/28 13:10:37;;;;;;;6.05;4.57;;;5.60;99.90;;;;;;5009704;28;20109;-58